Terminal Aerodrome Forecast
Issued by NWS

Home | Current Version | Previous Version | Text Only | Print | Product List | Glossary On
Versions: 1 2 3 4 5 6 7 8 9 10 11 12 13 14 15 16 17 18
000
FTUS46 KPDT 250000 AAA
TAFALW
TAF AMD
KALW 250003Z 2500/2524 18011KT 6SM -SNRA BR OVC009
     FM250100 20009KT P6SM SCT006 OVC015
     FM252000 22007KT 4SM BR OVC010=

USA.gov is the U.S. government's official web portal to all federal, state and local government web resources and services.